Time;durP1;ratioP1;P1;durP2;ratioP2;P2;SDS_P1;SDS_P2;PMS_P1;PMS_P2;Temp;Humidity;BMP_temperature;BMP_pressure;BME280_temperature;BME280_humidity;BME280_pressure;Samples;Min_cycle;Max_cycle;Signal;HPM_P1;HPM_P2
2023/02/10 05:51:07;;;;;;;52.70;24.70;;;;;;;-8.72;75.53;102101.85;109070;1275;22471;-45
2023/02/10 05:53:35;;;;;;;61.70;28.30;;;;;;;-8.67;75.49;102103.30;112108;1260;23027;-47
2023/02/10 05:56:02;;;;;;;99.20;37.30;;;;;;;-8.62;75.06;102103.85;111876;1260;22265;-47
2023/02/10 05:58:32;;;;;;;78.80;34.60;;;;;;;-8.59;74.94;102100.80;112019;1260;23222;-47
2023/02/10 06:00:59;;;;;;;75.70;34.00;;;;;;;-8.52;75.05;102102.23;110090;1260;23185;-48
2023/02/10 08:15:36;;;;;;;33.60;18.70;;;;;;;-2.99;77.22;101997.36;106326;1296;557774;-41
2023/02/10 08:18:18;;;;;;;34.20;17.10;;;;;;;-2.60;75.35;101992.17;101195;1283;10149101;-39
2023/02/10 08:22:22;;;;;;;28.60;15.50;;;;;;;-2.45;73.98;101992.36;108547;1282;22542;-48
2023/02/10 08:25:17;;;;;;;29.00;13.90;;;;;;;-2.35;72.84;101987.34;108410;1282;23519;-48
2023/02/10 08:28:00;;;;;;;25.30;13.60;;;;;;;-2.25;72.56;101986.23;108041;1276;25441;-48
2023/02/10 08:30:41;;;;;;;30.40;14.40;;;;;;;-2.13;72.26;101983.25;108236;1282;22294;-49
2023/02/10 08:33:31;;;;;;;24.40;13.20;;;;;;;-1.99;71.22;101988.40;108618;1282;22617;-48
2023/02/10 08:36:24;;;;;;;27.30;12.30;;;;;;;-1.92;69.72;101987.59;108829;1277;22539;-49
2023/02/10 08:39:00;;;;;;;24.40;12.60;;;;;;;-1.87;68.95;101979.47;109569;1265;22395;-41
2023/02/10 08:41:44;;;;;;;20.20;10.40;;;;;;;-1.78;68.51;101980.79;109597;1273;22746;-49
2023/02/10 08:47:44;;;;;;;30.50;13.00;;;;;;;-1.54;66.14;101971.16;108485;1281;23325;-40
2023/02/10 08:50:17;;;;;;;25.70;12.80;;;;;;;-1.48;65.19;101970.42;108086;1284;22546;-40
2023/02/10 08:52:58;;;;;;;21.10;12.80;;;;;;;-1.44;64.50;101966.79;107461;1281;22581;-40
2023/02/10 08:55:34;;;;;;;20.20;11.40;;;;;;;-1.38;65.12;101964.70;107491;1281;24509;-40
2023/02/10 08:58:20;;;;;;;19.30;11.20;;;;;;;-1.26;63.68;101963.31;107724;1282;26522;-40
2023/02/10 09:00:51;;;;;;;21.90;11.80;;;;;;;-1.21;63.61;101956.50;108525;1287;22549;-41
2023/02/10 09:03:26;;;;;;;26.70;11.20;;;;;;;-1.10;64.01;101955.63;107553;1265;22446;-49
2023/02/10 09:06:00;;;;;;;19.00;10.60;;;;;;;-0.94;62.63;101955.17;108937;1284;22431;-41
2023/02/10 09:08:43;;;;;;;17.90;10.40;;;;;;;-0.82;61.12;101949.40;108796;1281;23320;-49
2023/02/10 09:11:16;;;;;;;19.40;10.10;;;;;;;-0.70;60.59;101943.38;108379;1281;22556;-49
2023/02/10 09:13:47;;;;;;;18.50;9.90;;;;;;;-0.59;59.51;101943.83;107886;1281;22520;-49
2023/02/10 09:16:18;;;;;;;18.40;9.80;;;;;;;-0.53;58.56;101942.91;109072;1259;22324;-47
2023/02/10 09:18:53;;;;;;;19.70;9.10;;;;;;;-0.46;58.03;101935.84;109831;1277;22317;-47
2023/02/10 09:21:24;;;;;;;15.30;7.80;;;;;;;-0.36;56.52;101932.27;109397;1275;22304;-47
2023/02/10 09:24:01;;;;;;;13.40;7.60;;;;;;;-0.25;56.25;101934.23;108014;1276;22757;-46
2023/02/10 09:26:31;;;;;;;12.90;6.90;;;;;;;-0.14;54.73;101921.63;108500;1275;22534;-48
2023/02/10 09:28:59;;;;;;;12.70;6.20;;;;;;;-0.07;52.21;101920.60;107791;1275;22913;-49
2023/02/10 09:31:28;;;;;;;10.50;5.40;;;;;;;0.04;50.65;101913.05;108016;1272;22662;-49
2023/02/10 09:33:56;;;;;;;15.00;5.10;;;;;;;0.17;49.10;101905.19;109051;1277;22613;-47
2023/02/10 09:36:24;;;;;;;30.00;9.80;;;;;;;0.30;47.09;101898.89;107335;1280;22539;-42
2023/02/10 09:38:54;;;;;;;27.40;7.00;;;;;;;0.39;46.50;101890.84;107935;1275;23370;-39
2023/02/10 09:41:29;;;;;;;36.20;7.70;;;;;;;0.45;46.69;101886.67;108796;1280;25428;-39
2023/02/10 09:44:16;;;;;;;36.00;6.00;;;;;;;0.48;45.78;101884.30;108717;1282;22434;-43
2023/02/10 09:47:03;;;;;;;34.60;7.00;;;;;;;0.55;44.52;101883.52;108223;1260;22399;-40
2023/02/10 09:50:25;;;;;;;27.50;6.50;;;;;;;0.62;43.13;101878.30;108976;1275;22442;-47
2023/02/10 09:53:11;;;;;;;32.40;4.80;;;;;;;0.64;43.20;101874.98;108824;1283;23350;-45
2023/02/10 09:55:47;;;;;;;11.50;5.80;;;;;;;0.68;41.93;101874.94;107999;1283;22635;-48
2023/02/10 09:58:35;;;;;;;11.90;5.20;;;;;;;0.70;41.32;101875.95;109168;1290;22387;-48
2023/02/10 10:01:29;;;;;;;8.80;3.90;;;;;;;0.71;40.89;101876.66;108119;1290;22546;-49
2023/02/10 10:04:12;;;;;;;7.40;4.40;;;;;;;0.71;41.80;101868.62;108601;1283;22438;-47
2023/02/10 10:06:46;;;;;;;10.20;4.70;;;;;;;0.75;41.10;101863.70;108464;1285;22554;-48
2023/02/10 10:09:40;;;;;;;9.80;5.70;;;;;;;0.79;41.72;101858.65;107402;1290;22554;-48
2023/02/10 10:12:13;;;;;;;9.90;5.40;;;;;;;0.87;42.87;101856.88;107990;1289;22390;-47
2023/02/10 10:14:43;;;;;;;9.50;5.10;;;;;;;0.93;42.10;101857.10;107384;1289;22248;-48
2023/02/10 10:17:30;;;;;;;6.90;3.90;;;;;;;0.98;41.62;101859.00;107324;1296;22765;-49
2023/02/10 10:20:08;;;;;;;10.00;4.90;;;;;;;1.11;42.78;101855.64;106656;1293;24210;-48
2023/02/10 10:23:14;;;;;;;9.90;5.40;;;;;;;1.32;42.94;101855.81;107679;1292;22387;-50
2023/02/10 10:26:20;;;;;;;10.10;5.90;;;;;;;1.67;42.36;101862.73;106938;1296;22533;-47
2023/02/10 10:29:14;;;;;;;7.70;5.00;;;;;;;2.20;41.91;101852.83;108966;1283;22249;-50
2023/02/10 10:31:44;;;;;;;8.70;5.40;;;;;;;2.79;42.00;101844.31;108289;1283;22459;-48
2023/02/10 10:34:15;;;;;;;9.50;5.30;;;;;;;3.37;40.02;101846.98;106615;1290;24367;-47
2023/02/10 10:36:46;;;;;;;9.40;6.40;;;;;;;3.85;37.71;101846.42;108538;1285;25495;-48
2023/02/10 10:39:24;;;;;;;10.60;5.50;;;;;;;4.20;38.01;101835.73;107116;1283;22621;-48
2023/02/10 10:41:53;;;;;;;12.30;7.10;;;;;;;4.65;37.55;101831.58;106261;1289;26639;-48
2023/02/10 10:44:21;;;;;;;10.80;6.70;;;;;;;5.08;36.22;101819.77;106514;1290;26498;-48
2023/02/10 10:46:58;;;;;;;11.20;7.00;;;;;;;5.38;36.02;101816.68;107204;1288;24199;-50
2023/02/10 10:49:27;;;;;;;11.10;7.40;;;;;;;5.63;35.96;101807.56;106915;1275;23281;-48
2023/02/10 10:51:56;;;;;;;10.60;8.10;;;;;;;5.92;35.33;101805.75;109105;1277;22467;-47
2023/02/10 10:54:25;;;;;;;11.70;7.60;;;;;;;6.26;34.83;101794.69;109805;1276;23175;-39
2023/02/10 10:56:55;;;;;;;11.30;7.50;;;;;;;6.48;33.96;101783.27;109598;1275;22289;-41
2023/02/10 10:59:42;;;;;;;12.70;8.70;;;;;;;6.60;33.24;101784.12;108134;1276;25726;-40
2023/02/10 11:02:16;;;;;;;12.10;7.60;;;;;;;6.78;32.76;101778.95;108339;1282;23003;-48
2023/02/10 11:04:45;;;;;;;10.50;6.90;;;;;;;6.93;32.83;101780.89;107285;1276;25412;-50
2023/02/10 11:07:19;;;;;;;9.10;5.60;;;;;;;6.94;30.05;101778.87;107594;1281;22761;-49
2023/02/10 11:09:51;;;;;;;8.40;5.50;;;;;;;6.84;29.68;101782.12;107896;1281;25459;-48
2023/02/10 11:12:20;;;;;;;9.80;5.50;;;;;;;6.82;30.19;101784.98;107179;1277;22547;-48
2023/02/10 11:14:53;;;;;;;6.80;4.70;;;;;;;6.97;30.16;101786.25;107256;1279;22361;-40
2023/02/10 11:17:34;;;;;;;9.30;5.40;;;;;;;7.16;29.43;101783.68;107200;1276;25406;-41
2023/02/10 11:20:12;;;;;;;8.20;4.60;;;;;;;7.33;29.14;101782.04;106814;1282;22672;-40
2023/02/10 11:22:42;;;;;;;9.00;5.90;;;;;;;7.48;28.97;101773.58;107572;1281;25337;-41
2023/02/10 11:25:35;;;;;;;7.90;5.20;;;;;;;7.73;28.76;101771.69;108915;1281;22564;-40
2023/02/10 11:28:06;;;;;;;8.10;5.00;;;;;;;7.98;27.73;101761.42;107192;1281;22611;-40
2023/02/10 11:30:37;;;;;;;7.80;5.20;;;;;;;7.92;28.21;101764.52;106872;1281;22552;-40
2023/02/10 11:33:06;;;;;;;12.90;6.20;;;;;;;7.82;28.36;101767.45;106862;1275;24225;-40
2023/02/10 11:35:35;;;;;;;12.10;6.60;;;;;;;7.84;28.36;101768.24;108567;1278;22655;-41
2023/02/10 11:38:07;;;;;;;9.50;5.10;;;;;;;7.95;28.51;101764.81;108333;1277;23076;-40
2023/02/10 11:40:51;;;;;;;8.30;5.80;;;;;;;8.03;28.71;101763.69;109430;1282;22447;-41
2023/02/10 11:43:20;;;;;;;9.00;5.60;;;;;;;8.13;28.78;101763.66;108482;1276;25290;-40
2023/02/10 11:45:59;;;;;;;8.80;5.40;;;;;;;8.20;28.12;101761.81;108262;1275;22422;-41
2023/02/10 11:48:28;;;;;;;7.40;5.00;;;;;;;8.07;26.80;101765.55;107253;1277;22532;-42
2023/02/10 11:51:29;;;;;;;7.00;4.50;;;;;;;7.72;27.33;101763.33;107984;1282;22586;-40
2023/02/10 11:53:57;;;;;;;8.80;4.30;;;;;;;7.40;28.08;101760.09;106891;1290;22325;-40
2023/02/10 11:59:36;;;;;;;7.50;4.80;;;;;;;7.44;28.75;101749.11;107387;1276;25392;-41
